sensor_id;sensor_type;location;lat;lon;timestamp;pressure;altitude;pressure_sealevel;temperature;humidity
76551;BME280;68768;53.156;18.164;2024-02-26T00:00:09;100407.14;;;3.45;82.02
76551;BME280;68768;53.156;18.164;2024-02-26T00:02:57;100406.86;;;3.40;82.30
76551;BME280;68768;53.156;18.164;2024-02-26T00:05:24;100402.67;;;3.38;82.21
76551;BME280;68768;53.156;18.164;2024-02-26T00:07:51;100403.56;;;3.37;82.38
76551;BME280;68768;53.156;18.164;2024-02-26T00:10:18;100397.14;;;3.34;82.52
76551;BME280;68768;53.156;18.164;2024-02-26T00:12:45;100399.96;;;3.32;82.54
76551;BME280;68768;53.156;18.164;2024-02-26T00:15:12;100397.72;;;3.30;82.38
76551;BME280;68768;53.156;18.164;2024-02-26T00:17:39;100399.48;;;3.28;82.25
76551;BME280;68768;53.156;18.164;2024-02-26T00:20:07;100401.67;;;3.23;82.07
76551;BME280;68768;53.156;18.164;2024-02-26T00:22:37;100403.63;;;3.20;82.03
76551;BME280;68768;53.156;18.164;2024-02-26T00:25:04;100403.50;;;3.16;82.08
76551;BME280;68768;53.156;18.164;2024-02-26T00:27:31;100404.27;;;3.12;82.08
76551;BME280;68768;53.156;18.164;2024-02-26T00:29:58;100402.89;;;3.10;82.14
76551;BME280;68768;53.156;18.164;2024-02-26T00:32:25;100401.35;;;3.06;81.98
76551;BME280;68768;53.156;18.164;2024-02-26T00:34:52;100403.52;;;3.02;82.17
76551;BME280;68768;53.156;18.164;2024-02-26T00:37:19;100391.98;;;3.00;82.32
76551;BME280;68768;53.156;18.164;2024-02-26T00:39:45;100390.58;;;3.00;82.17
76551;BME280;68768;53.156;18.164;2024-02-26T00:42:13;100388.70;;;2.95;81.91
76551;BME280;68768;53.156;18.164;2024-02-26T00:44:40;100394.16;;;2.93;82.01
76551;BME280;68768;53.156;18.164;2024-02-26T00:47:07;100388.56;;;2.92;82.09
76551;BME280;68768;53.156;18.164;2024-02-26T00:49:33;100391.03;;;2.90;82.16
76551;BME280;68768;53.156;18.164;2024-02-26T00:52:00;100388.77;;;2.88;82.07
76551;BME280;68768;53.156;18.164;2024-02-26T00:54:27;100388.66;;;2.84;82.02
76551;BME280;68768;53.156;18.164;2024-02-26T00:56:54;100385.19;;;2.81;81.99
76551;BME280;68768;53.156;18.164;2024-02-26T00:59:21;100388.89;;;2.80;81.97
76551;BME280;68768;53.156;18.164;2024-02-26T01:01:48;100389.10;;;2.76;82.00
76551;BME280;68768;53.156;18.164;2024-02-26T01:04:15;100389.69;;;2.71;81.93
76551;BME280;68768;53.156;18.164;2024-02-26T01:06:42;100392.69;;;2.68;82.06
76551;BME280;68768;53.156;18.164;2024-02-26T01:09:09;100392.39;;;2.65;82.07
76551;BME280;68768;53.156;18.164;2024-02-26T01:11:36;100394.70;;;2.63;82.17
76551;BME280;68768;53.156;18.164;2024-02-26T01:14:03;100395.23;;;2.61;82.13
76551;BME280;68768;53.156;18.164;2024-02-26T01:16:30;100395.09;;;2.58;82.24
76551;BME280;68768;53.156;18.164;2024-02-26T01:18:58;100395.98;;;2.57;82.38
76551;BME280;68768;53.156;18.164;2024-02-26T01:21:25;100386.30;;;2.45;82.37
76551;BME280;68768;53.156;18.164;2024-02-26T01:23:55;100400.46;;;2.47;82.60
76551;BME280;68768;53.156;18.164;2024-02-26T01:26:22;100399.45;;;2.43;82.75
76551;BME280;68768;53.156;18.164;2024-02-26T01:28:49;100404.38;;;2.42;82.98
76551;BME280;68768;53.156;18.164;2024-02-26T01:31:16;100399.29;;;2.44;83.09
76551;BME280;68768;53.156;18.164;2024-02-26T01:33:43;100402.20;;;2.47;83.14
76551;BME280;68768;53.156;18.164;2024-02-26T01:36:10;100396.59;;;2.48;83.31
76551;BME280;68768;53.156;18.164;2024-02-26T01:38:37;100399.90;;;2.51;83.36
76551;BME280;68768;53.156;18.164;2024-02-26T01:41:03;100396.56;;;2.52;83.38
76551;BME280;68768;53.156;18.164;2024-02-26T01:43:30;100400.41;;;2.53;83.22
76551;BME280;68768;53.156;18.164;2024-02-26T01:45:58;100406.01;;;2.54;83.32
76551;BME280;68768;53.156;18.164;2024-02-26T01:48:25;100406.33;;;2.55;83.32
76551;BME280;68768;53.156;18.164;2024-02-26T01:50:52;100409.88;;;2.53;83.29
76551;BME280;68768;53.156;18.164;2024-02-26T01:53:20;100409.01;;;2.51;83.39
76551;BME280;68768;53.156;18.164;2024-02-26T01:55:47;100405.51;;;2.50;83.41
76551;BME280;68768;53.156;18.164;2024-02-26T01:58:14;100407.98;;;2.48;83.45
76551;BME280;68768;53.156;18.164;2024-02-26T02:00:42;100407.46;;;2.46;83.51
76551;BME280;68768;53.156;18.164;2024-02-26T02:03:09;100413.95;;;2.45;83.65
76551;BME280;68768;53.156;18.164;2024-02-26T02:05:42;100415.87;;;2.47;83.83
76551;BME280;68768;53.156;18.164;2024-02-26T02:08:10;100419.88;;;2.49;83.93
76551;BME280;68768;53.156;18.164;2024-02-26T02:10:38;100415.84;;;2.53;83.85
76551;BME280;68768;53.156;18.164;2024-02-26T02:13:05;100414.90;;;2.56;83.89
76551;BME280;68768;53.156;18.164;2024-02-26T02:15:32;100420.54;;;2.54;83.82
76551;BME280;68768;53.156;18.164;2024-02-26T02:18:00;100410.42;;;2.49;83.71
76551;BME280;68768;53.156;18.164;2024-02-26T02:20:33;100411.30;;;2.49;83.90
76551;BME280;68768;53.156;18.164;2024-02-26T02:23:02;100408.14;;;2.49;83.99
76551;BME280;68768;53.156;18.164;2024-02-26T02:25:29;100410.59;;;2.52;84.10
76551;BME280;68768;53.156;18.164;2024-02-26T02:27:56;100408.95;;;2.54;84.10
76551;BME280;68768;53.156;18.164;2024-02-26T02:30:28;100410.33;;;2.57;84.12
76551;BME280;68768;53.156;18.164;2024-02-26T02:32:57;100403.48;;;2.60;83.91
76551;BME280;68768;53.156;18.164;2024-02-26T02:35:25;100401.23;;;2.57;83.62
76551;BME280;68768;53.156;18.164;2024-02-26T02:37:52;100394.05;;;2.55;83.82
76551;BME280;68768;53.156;18.164;2024-02-26T02:40:19;100399.84;;;2.55;83.75
76551;BME280;68768;53.156;18.164;2024-02-26T02:42:46;100400.39;;;2.55;83.56
76551;BME280;68768;53.156;18.164;2024-02-26T02:45:13;100406.54;;;2.53;83.46
76551;BME280;68768;53.156;18.164;2024-02-26T02:47:40;100407.43;;;2.51;83.35
76551;BME280;68768;53.156;18.164;2024-02-26T02:50:07;100411.64;;;2.49;83.32
76551;BME280;68768;53.156;18.164;2024-02-26T02:52:34;100409.04;;;2.47;83.23
76551;BME280;68768;53.156;18.164;2024-02-26T02:55:01;100408.02;;;2.43;83.23
76551;BME280;68768;53.156;18.164;2024-02-26T02:57:30;100409.48;;;2.40;83.14
76551;BME280;68768;53.156;18.164;2024-02-26T02:59:57;100411.59;;;2.36;83.11
76551;BME280;68768;53.156;18.164;2024-02-26T03:02:23;100415.15;;;2.33;83.23
76551;BME280;68768;53.156;18.164;2024-02-26T03:04:53;100419.35;;;2.32;83.20
76551;BME280;68768;53.156;18.164;2024-02-26T03:07:20;100419.73;;;2.30;83.27
76551;BME280;68768;53.156;18.164;2024-02-26T03:09:47;100422.21;;;2.26;83.32
76551;BME280;68768;53.156;18.164;2024-02-26T03:12:14;100419.13;;;2.17;83.19
76551;BME280;68768;53.156;18.164;2024-02-26T03:14:41;100420.21;;;2.13;83.42
76551;BME280;68768;53.156;18.164;2024-02-26T03:17:08;100416.02;;;2.13;83.42
76551;BME280;68768;53.156;18.164;2024-02-26T03:19:34;100421.48;;;2.09;83.29
76551;BME280;68768;53.156;18.164;2024-02-26T03:22:01;100421.52;;;2.04;83.57
76551;BME280;68768;53.156;18.164;2024-02-26T03:24:29;100422.79;;;2.00;83.66
76551;BME280;68768;53.156;18.164;2024-02-26T03:26:56;100420.35;;;1.97;83.80
76551;BME280;68768;53.156;18.164;2024-02-26T03:29:23;100417.20;;;1.97;83.82
76551;BME280;68768;53.156;18.164;2024-02-26T03:31:49;100417.20;;;1.96;84.04
76551;BME280;68768;53.156;18.164;2024-02-26T03:34:16;100414.58;;;1.96;84.15
76551;BME280;68768;53.156;18.164;2024-02-26T03:36:45;100418.77;;;1.96;84.18
76551;BME280;68768;53.156;18.164;2024-02-26T03:39:12;100419.13;;;1.95;84.34
76551;BME280;68768;53.156;18.164;2024-02-26T03:41:39;100418.61;;;1.95;84.50
76551;BME280;68768;53.156;18.164;2024-02-26T03:44:06;100419.66;;;1.96;84.74
76551;BME280;68768;53.156;18.164;2024-02-26T03:46:33;100424.73;;;1.97;84.79
76551;BME280;68768;53.156;18.164;2024-02-26T03:48:59;100425.77;;;1.99;84.80
76551;BME280;68768;53.156;18.164;2024-02-26T03:51:27;100425.23;;;2.01;84.89
76551;BME280;68768;53.156;18.164;2024-02-26T03:53:58;100423.62;;;2.04;84.98
76551;BME280;68768;53.156;18.164;2024-02-26T03:56:26;100419.75;;;2.04;85.07
76551;BME280;68768;53.156;18.164;2024-02-26T03:58:53;100423.08;;;2.05;85.05
76551;BME280;68768;53.156;18.164;2024-02-26T04:01:20;100425.70;;;2.08;85.09
76551;BME280;68768;53.156;18.164;2024-02-26T04:03:47;100427.95;;;2.10;85.26
76551;BME280;68768;53.156;18.164;2024-02-26T04:06:14;100426.73;;;2.11;85.21
76551;BME280;68768;53.156;18.164;2024-02-26T04:08:41;100425.14;;;2.11;85.22
76551;BME280;68768;53.156;18.164;2024-02-26T04:11:08;100426.36;;;2.11;85.22
76551;BME280;68768;53.156;18.164;2024-02-26T04:13:36;100426.04;;;2.08;85.22
76551;BME280;68768;53.156;18.164;2024-02-26T04:16:06;100426.58;;;2.05;85.50
76551;BME280;68768;53.156;18.164;2024-02-26T04:18:33;100429.08;;;2.01;85.95
76551;BME280;68768;53.156;18.164;2024-02-26T04:21:00;100423.15;;;1.97;86.42
76551;BME280;68768;53.156;18.164;2024-02-26T04:23:27;100420.71;;;1.95;86.47
76551;BME280;68768;53.156;18.164;2024-02-26T04:25:54;100419.85;;;1.94;86.57
76551;BME280;68768;53.156;18.164;2024-02-26T04:28:21;100421.98;;;1.92;86.46
76551;BME280;68768;53.156;18.164;2024-02-26T04:30:48;100424.09;;;1.89;86.52
76551;BME280;68768;53.156;18.164;2024-02-26T04:33:15;100426.02;;;1.87;86.20
76551;BME280;68768;53.156;18.164;2024-02-26T04:35:42;100426.40;;;1.83;86.27
76551;BME280;68768;53.156;18.164;2024-02-26T04:38:09;100427.84;;;1.80;86.09
76551;BME280;68768;53.156;18.164;2024-02-26T04:40:36;100428.71;;;1.77;86.21
76551;BME280;68768;53.156;18.164;2024-02-26T04:43:03;100431.38;;;1.73;86.38
76551;BME280;68768;53.156;18.164;2024-02-26T04:45:30;100429.48;;;1.70;86.41
76551;BME280;68768;53.156;18.164;2024-02-26T04:47:57;100428.79;;;1.69;86.26
76551;BME280;68768;53.156;18.164;2024-02-26T04:50:24;100430.19;;;1.68;86.20
76551;BME280;68768;53.156;18.164;2024-02-26T04:52:50;100429.66;;;1.68;86.25
76551;BME280;68768;53.156;18.164;2024-02-26T04:55:17;100429.67;;;1.67;86.22
76551;BME280;68768;53.156;18.164;2024-02-26T04:57:44;100429.69;;;1.64;86.21
76551;BME280;68768;53.156;18.164;2024-02-26T05:00:12;100429.70;;;1.63;86.24
76551;BME280;68768;53.156;18.164;2024-02-26T05:02:39;100432.18;;;1.58;86.41
76551;BME280;68768;53.156;18.164;2024-02-26T05:05:06;100439.58;;;1.52;86.51
76551;BME280;68768;53.156;18.164;2024-02-26T05:07:40;100440.98;;;1.48;86.42
76551;BME280;68768;53.156;18.164;2024-02-26T05:10:08;100441.34;;;1.45;86.59
76551;BME280;68768;53.156;18.164;2024-02-26T05:12:35;100448.54;;;1.42;86.60
76551;BME280;68768;53.156;18.164;2024-02-26T05:15:03;100450.66;;;1.38;86.51
76551;BME280;68768;53.156;18.164;2024-02-26T05:17:30;100459.58;;;1.34;86.61
76551;BME280;68768;53.156;18.164;2024-02-26T05:19:57;100463.10;;;1.32;86.53
76551;BME280;68768;53.156;18.164;2024-02-26T05:22:24;100463.98;;;1.31;86.60
76551;BME280;68768;53.156;18.164;2024-02-26T05:24:51;100466.09;;;1.30;86.36
76551;BME280;68768;53.156;18.164;2024-02-26T05:27:19;100473.44;;;1.28;86.41
76551;BME280;68768;53.156;18.164;2024-02-26T05:29:46;100477.11;;;1.26;86.40
76551;BME280;68768;53.156;18.164;2024-02-26T05:32:13;100480.42;;;1.27;86.65
76551;BME280;68768;53.156;18.164;2024-02-26T05:34:40;100479.21;;;1.28;86.57
76551;BME280;68768;53.156;18.164;2024-02-26T05:37:08;100476.77;;;1.25;86.30
76551;BME280;68768;53.156;18.164;2024-02-26T05:39:35;100477.11;;;1.22;86.37
76551;BME280;68768;53.156;18.164;2024-02-26T05:42:02;100481.00;;;1.19;86.56
76551;BME280;68768;53.156;18.164;2024-02-26T05:44:29;100481.00;;;1.16;86.51
76551;BME280;68768;53.156;18.164;2024-02-26T05:46:56;100489.23;;;1.11;86.70
76551;BME280;68768;53.156;18.164;2024-02-26T05:49:23;100490.81;;;1.07;86.58
76551;BME280;68768;53.156;18.164;2024-02-26T05:51:50;100486.98;;;1.05;86.57
76551;BME280;68768;53.156;18.164;2024-02-26T05:54:17;100498.88;;;1.02;86.61
76551;BME280;68768;53.156;18.164;2024-02-26T05:56:44;100501.14;;;1.01;86.70
76551;BME280;68768;53.156;18.164;2024-02-26T05:59:11;100503.42;;;1.01;86.58
76551;BME280;68768;53.156;18.164;2024-02-26T06:01:38;100506.39;;;1.01;86.47
76551;BME280;68768;53.156;18.164;2024-02-26T06:04:04;100508.50;;;1.01;86.71
76551;BME280;68768;53.156;18.164;2024-02-26T06:06:31;100510.59;;;1.00;86.78
76551;BME280;68768;53.156;18.164;2024-02-26T06:08:58;100505.88;;;1.00;86.71
76551;BME280;68768;53.156;18.164;2024-02-26T06:11:25;100507.45;;;1.00;86.63
76551;BME280;68768;53.156;18.164;2024-02-26T06:13:52;100507.80;;;1.00;86.71
76551;BME280;68768;53.156;18.164;2024-02-26T06:16:19;100507.80;;;0.98;87.04
76551;BME280;68768;53.156;18.164;2024-02-26T06:18:46;100509.72;;;0.95;86.96
76551;BME280;68768;53.156;18.164;2024-02-26T06:21:13;100511.98;;;0.95;86.94
76551;BME280;68768;53.156;18.164;2024-02-26T06:23:40;100516.18;;;0.96;86.87
76551;BME280;68768;53.156;18.164;2024-02-26T06:26:07;100518.98;;;0.97;87.26
76551;BME280;68768;53.156;18.164;2024-02-26T06:28:34;100519.15;;;0.95;87.43
76551;BME280;68768;53.156;18.164;2024-02-26T06:31:02;100515.31;;;0.94;87.61
76551;BME280;68768;53.156;18.164;2024-02-26T06:33:29;100514.79;;;0.95;87.51
76551;BME280;68768;53.156;18.164;2024-02-26T06:35:56;100521.60;;;0.96;87.74
76551;BME280;68768;53.156;18.164;2024-02-26T06:38:23;100524.23;;;0.96;87.75
76551;BME280;68768;53.156;18.164;2024-02-26T06:40:50;100530.16;;;0.97;88.12
76551;BME280;68768;53.156;18.164;2024-02-26T06:43:17;100530.86;;;0.98;87.82
76551;BME280;68768;53.156;18.164;2024-02-26T06:45:44;100532.61;;;1.00;88.02
76551;BME280;68768;53.156;18.164;2024-02-26T06:48:11;100534.16;;;1.03;87.96
76551;BME280;68768;53.156;18.164;2024-02-26T06:50:38;100528.22;;;1.07;87.92
76551;BME280;68768;53.156;18.164;2024-02-26T06:53:04;100528.92;;;1.10;88.19
76551;BME280;68768;53.156;18.164;2024-02-26T06:55:33;100531.17;;;1.12;88.09
76551;BME280;68768;53.156;18.164;2024-02-26T06:58:00;100531.52;;;1.15;88.00
76551;BME280;68768;53.156;18.164;2024-02-26T07:00:27;100530.46;;;1.19;88.21
76551;BME280;68768;53.156;18.164;2024-02-26T07:02:54;100526.96;;;1.21;88.22
76551;BME280;68768;53.156;18.164;2024-02-26T07:05:21;100524.50;;;1.20;88.10
76551;BME280;68768;53.156;18.164;2024-02-26T07:07:48;100531.83;;;1.23;88.25
76551;BME280;68768;53.156;18.164;2024-02-26T07:10:15;100533.91;;;1.25;87.97
76551;BME280;68768;53.156;18.164;2024-02-26T07:12:42;100535.66;;;1.27;87.87
76551;BME280;68768;53.156;18.164;2024-02-26T07:15:10;100540.91;;;1.29;88.13
76551;BME280;68768;53.156;18.164;2024-02-26T07:17:37;100536.89;;;1.32;87.85
76551;BME280;68768;53.156;18.164;2024-02-26T07:20:05;100543.34;;;1.38;87.93
76551;BME280;68768;53.156;18.164;2024-02-26T07:22:32;100539.11;;;1.43;88.25
76551;BME280;68768;53.156;18.164;2024-02-26T07:24:58;100545.39;;;1.45;88.31
76551;BME280;68768;53.156;18.164;2024-02-26T07:27:25;100545.39;;;1.50;88.29
76551;BME280;68768;53.156;18.164;2024-02-26T07:29:52;100542.06;;;1.51;88.66
76551;BME280;68768;53.156;18.164;2024-02-26T07:32:19;100546.59;;;1.54;88.46
76551;BME280;68768;53.156;18.164;2024-02-26T07:34:46;100548.15;;;1.56;88.62
76551;BME280;68768;53.156;18.164;2024-02-26T07:37:13;100546.58;;;1.56;88.55
76551;BME280;68768;53.156;18.164;2024-02-26T07:39:40;100552.16;;;1.59;88.17
76551;BME280;68768;53.156;18.164;2024-02-26T07:42:07;100554.76;;;1.64;88.11
76551;BME280;68768;53.156;18.164;2024-02-26T07:44:34;100559.82;;;1.69;88.04
76551;BME280;68768;53.156;18.164;2024-02-26T07:47:01;100557.52;;;1.76;88.12
76551;BME280;68768;53.156;18.164;2024-02-26T07:49:27;100561.48;;;1.87;88.08
76551;BME280;68768;53.156;18.164;2024-02-26T07:51:55;100560.35;;;2.00;88.29
76551;BME280;68768;53.156;18.164;2024-02-26T07:54:24;100566.42;;;2.11;88.58
76551;BME280;68768;53.156;18.164;2024-02-26T07:56:51;100571.44;;;2.19;88.05
76551;BME280;68768;53.156;18.164;2024-02-26T07:59:18;100567.85;;;2.32;87.97
76551;BME280;68768;53.156;18.164;2024-02-26T08:01:49;100563.56;;;2.44;88.21
76551;BME280;68768;53.156;18.164;2024-02-26T08:04:16;100565.27;;;2.49;88.11
76551;BME280;68768;53.156;18.164;2024-02-26T08:06:43;100569.12;;;2.49;87.88
76551;BME280;68768;53.156;18.164;2024-02-26T08:09:10;100568.24;;;2.51;88.27
76551;BME280;68768;53.156;18.164;2024-02-26T08:11:39;100566.30;;;2.52;88.12
76551;BME280;68768;53.156;18.164;2024-02-26T08:14:06;100569.77;;;2.55;88.14
76551;BME280;68768;53.156;18.164;2024-02-26T08:16:33;100571.14;;;2.59;88.25
76551;BME280;68768;53.156;18.164;2024-02-26T08:19:00;100570.91;;;2.66;88.25
76551;BME280;68768;53.156;18.164;2024-02-26T08:21:27;100577.89;;;2.70;87.94
76551;BME280;68768;53.156;18.164;2024-02-26T08:23:54;100580.30;;;2.75;88.33
76551;BME280;68768;53.156;18.164;2024-02-26T08:26:21;100575.88;;;2.81;88.31
76551;BME280;68768;53.156;18.164;2024-02-26T08:28:50;100576.67;;;2.88;88.42
76551;BME280;68768;53.156;18.164;2024-02-26T08:31:18;100576.09;;;2.95;88.18
76551;BME280;68768;53.156;18.164;2024-02-26T08:33:45;100571.30;;;3.01;88.34
76551;BME280;68768;53.156;18.164;2024-02-26T08:36:12;100571.81;;;3.04;87.71
76551;BME280;68768;53.156;18.164;2024-02-26T08:38:39;100567.52;;;3.10;87.81
76551;BME280;68768;53.156;18.164;2024-02-26T08:41:06;100572.36;;;3.17;87.80
76551;BME280;68768;53.156;18.164;2024-02-26T08:43:33;100571.61;;;3.23;87.96
76551;BME280;68768;53.156;18.164;2024-02-26T08:46:00;100578.37;;;3.30;87.83
76551;BME280;68768;53.156;18.164;2024-02-26T08:48:27;100576.88;;;3.38;87.61
76551;BME280;68768;53.156;18.164;2024-02-26T08:50:54;100579.08;;;3.45;87.38
76551;BME280;68768;53.156;18.164;2024-02-26T08:53:21;100580.39;;;3.54;87.18
76551;BME280;68768;53.156;18.164;2024-02-26T08:55:48;100584.34;;;3.60;87.31
76551;BME280;68768;53.156;18.164;2024-02-26T08:58:15;100586.23;;;3.64;86.78
76551;BME280;68768;53.156;18.164;2024-02-26T09:00:42;100583.88;;;3.69;86.98
76551;BME280;68768;53.156;18.164;2024-02-26T09:03:09;100584.84;;;3.77;87.26
76551;BME280;68768;53.156;18.164;2024-02-26T09:05:36;100590.55;;;3.84;86.93
76551;BME280;68768;53.156;18.164;2024-02-26T09:08:03;100589.96;;;3.87;86.93
76551;BME280;68768;53.156;18.164;2024-02-26T09:10:30;100594.13;;;3.91;86.85
76551;BME280;68768;53.156;18.164;2024-02-26T09:12:58;100594.64;;;3.92;86.91
76551;BME280;68768;53.156;18.164;2024-02-26T09:15:25;100591.64;;;3.94;86.74
76551;BME280;68768;53.156;18.164;2024-02-26T09:17:52;100596.67;;;3.98;86.77
76551;BME280;68768;53.156;18.164;2024-02-26T09:20:19;100596.25;;;4.05;86.67
76551;BME280;68768;53.156;18.164;2024-02-26T09:22:50;100600.00;;;4.12;86.99
76551;BME280;68768;53.156;18.164;2024-02-26T09:25:17;100598.30;;;4.20;87.03
76551;BME280;68768;53.156;18.164;2024-02-26T09:27:45;100598.70;;;4.29;86.89
76551;BME280;68768;53.156;18.164;2024-02-26T09:30:13;100600.91;;;4.35;86.67
76551;BME280;68768;53.156;18.164;2024-02-26T09:32:41;100602.05;;;4.39;86.54
76551;BME280;68768;53.156;18.164;2024-02-26T09:35:08;100598.33;;;4.42;86.72
76551;BME280;68768;53.156;18.164;2024-02-26T09:37:34;100594.02;;;4.48;86.77
76551;BME280;68768;53.156;18.164;2024-02-26T09:40:04;100588.34;;;4.53;86.76
76551;BME280;68768;53.156;18.164;2024-02-26T09:42:34;100589.63;;;4.59;86.63
76551;BME280;68768;53.156;18.164;2024-02-26T09:45:05;100590.92;;;4.67;86.66
76551;BME280;68768;53.156;18.164;2024-02-26T09:47:35;100595.14;;;4.78;86.78
76551;BME280;68768;53.156;18.164;2024-02-26T09:50:05;100591.07;;;4.90;86.96
76551;BME280;68768;53.156;18.164;2024-02-26T09:52:34;100599.85;;;5.01;86.69
76551;BME280;68768;53.156;18.164;2024-02-26T09:55:04;100603.34;;;5.12;86.43
76551;BME280;68768;53.156;18.164;2024-02-26T09:57:31;100595.02;;;5.25;86.29
76551;BME280;68768;53.156;18.164;2024-02-26T09:59:59;100597.31;;;5.34;86.57
76551;BME280;68768;53.156;18.164;2024-02-26T10:02:33;100599.70;;;5.47;86.01
76551;BME280;68768;53.156;18.164;2024-02-26T10:05:03;100597.91;;;5.58;85.73
76551;BME280;68768;53.156;18.164;2024-02-26T10:07:33;100601.40;;;5.69;85.87
76551;BME280;68768;53.156;18.164;2024-02-26T10:10:01;100597.12;;;5.79;85.94
76551;BME280;68768;53.156;18.164;2024-02-26T10:12:29;100599.61;;;5.87;85.69
76551;BME280;68768;53.156;18.164;2024-02-26T10:14:57;100597.52;;;5.95;85.52
76551;BME280;68768;53.156;18.164;2024-02-26T10:17:24;100597.12;;;5.99;84.72
76551;BME280;68768;53.156;18.164;2024-02-26T10:19:52;100596.67;;;6.02;85.24
76551;BME280;68768;53.156;18.164;2024-02-26T10:22:23;100599.25;;;6.05;85.07
76551;BME280;68768;53.156;18.164;2024-02-26T10:24:50;100595.31;;;6.09;85.16
76551;BME280;68768;53.156;18.164;2024-02-26T10:27:18;100595.00;;;6.14;85.16
76551;BME280;68768;53.156;18.164;2024-02-26T10:29:45;100590.64;;;6.21;85.27
76551;BME280;68768;53.156;18.164;2024-02-26T10:32:13;100588.42;;;6.24;84.59
76551;BME280;68768;53.156;18.164;2024-02-26T10:34:41;100592.27;;;6.26;84.87
76551;BME280;68768;53.156;18.164;2024-02-26T10:37:09;100584.81;;;6.29;84.93
76551;BME280;68768;53.156;18.164;2024-02-26T10:39:36;100584.88;;;6.33;85.00
76551;BME280;68768;53.156;18.164;2024-02-26T10:42:04;100578.91;;;6.40;85.34
76551;BME280;68768;53.156;18.164;2024-02-26T10:44:36;100575.58;;;6.47;85.36
76551;BME280;68768;53.156;18.164;2024-02-26T10:47:03;100573.35;;;6.51;85.24
76551;BME280;68768;53.156;18.164;2024-02-26T10:49:30;100578.16;;;6.56;85.42
76551;BME280;68768;53.156;18.164;2024-02-26T10:51:58;100578.01;;;6.62;85.58
76551;BME280;68768;53.156;18.164;2024-02-26T10:54:29;100579.27;;;6.69;85.21
76551;BME280;68768;53.156;18.164;2024-02-26T10:56:57;100581.74;;;6.76;85.19
76551;BME280;68768;53.156;18.164;2024-02-26T10:59:26;100582.14;;;6.82;85.02
76551;BME280;68768;53.156;18.164;2024-02-26T11:01:54;100581.15;;;6.85;85.16
76551;BME280;68768;53.156;18.164;2024-02-26T11:04:22;100584.89;;;6.91;85.28
76551;BME280;68768;53.156;18.164;2024-02-26T11:06:50;100581.38;;;6.97;85.25
76551;BME280;68768;53.156;18.164;2024-02-26T11:09:17;100583.65;;;7.05;85.29
76551;BME280;68768;53.156;18.164;2024-02-26T11:11:48;100576.77;;;7.18;85.33
76551;BME280;68768;53.156;18.164;2024-02-26T11:14:15;100569.90;;;7.31;85.09
76551;BME280;68768;53.156;18.164;2024-02-26T11:16:44;100570.77;;;7.45;85.09
76551;BME280;68768;53.156;18.164;2024-02-26T11:19:11;100567.30;;;7.54;84.92
76551;BME280;68768;53.156;18.164;2024-02-26T11:21:40;100564.73;;;7.64;84.72
76551;BME280;68768;53.156;18.164;2024-02-26T11:24:14;100565.67;;;7.74;84.68
76551;BME280;68768;53.156;18.164;2024-02-26T11:26:47;100567.39;;;7.82;84.36
76551;BME280;68768;53.156;18.164;2024-02-26T11:29:20;100566.44;;;7.91;84.47
76551;BME280;68768;53.156;18.164;2024-02-26T11:31:48;100559.81;;;7.99;84.48
76551;BME280;68768;53.156;18.164;2024-02-26T11:34:16;100557.83;;;8.06;84.29
76551;BME280;68768;53.156;18.164;2024-02-26T11:36:43;100553.23;;;8.12;84.25
76551;BME280;68768;53.156;18.164;2024-02-26T11:39:11;100547.85;;;8.21;84.37
76551;BME280;68768;53.156;18.164;2024-02-26T11:41:43;100553.59;;;8.29;84.34
76551;BME280;68768;53.156;18.164;2024-02-26T11:44:10;100556.59;;;8.36;84.05
76551;BME280;68768;53.156;18.164;2024-02-26T11:46:41;100562.08;;;8.42;83.94
76551;BME280;68768;53.156;18.164;2024-02-26T11:51:55;100567.26;;;8.56;83.88
76551;BME280;68768;53.156;18.164;2024-02-26T11:54:48;100564.94;;;8.62;83.87
76551;BME280;68768;53.156;18.164;2024-02-26T12:02:52;100560.89;;;8.83;83.62
76551;BME280;68768;53.156;18.164;2024-02-26T12:05:32;100556.17;;;8.92;83.53
76551;BME280;68768;53.156;18.164;2024-02-26T12:10:31;100553.61;;;9.09;83.33
76551;BME280;68768;53.156;18.164;2024-02-26T12:13:13;100553.90;;;9.16;83.29
76551;BME280;68768;53.156;18.164;2024-02-26T12:15:54;100551.94;;;9.22;83.05
76551;BME280;68768;53.156;18.164;2024-02-26T12:18:22;100551.95;;;9.26;82.85
76551;BME280;68768;53.156;18.164;2024-02-26T12:20:59;100551.40;;;9.32;82.77
76551;BME280;68768;53.156;18.164;2024-02-26T12:23:27;100548.75;;;9.36;82.72
76551;BME280;68768;53.156;18.164;2024-02-26T12:26:02;100550.30;;;9.43;82.69
76551;BME280;68768;53.156;18.164;2024-02-26T12:28:29;100547.95;;;9.49;82.63
76551;BME280;68768;53.156;18.164;2024-02-26T12:30:57;100547.73;;;9.55;82.66
76551;BME280;68768;53.156;18.164;2024-02-26T12:33:26;100551.34;;;9.63;82.49
76551;BME280;68768;53.156;18.164;2024-02-26T12:35:54;100549.11;;;9.70;81.74
76551;BME280;68768;53.156;18.164;2024-02-26T12:38:21;100548.52;;;9.77;81.84
76551;BME280;68768;53.156;18.164;2024-02-26T12:40:48;100547.20;;;9.83;81.65
76551;BME280;68768;53.156;18.164;2024-02-26T12:43:16;100544.16;;;9.89;81.40
76551;BME280;68768;53.156;18.164;2024-02-26T12:45:43;100541.33;;;9.93;81.66
76551;BME280;68768;53.156;18.164;2024-02-26T12:48:13;100541.33;;;9.97;81.53
76551;BME280;68768;53.156;18.164;2024-02-26T12:50:44;100538.08;;;9.99;81.15
76551;BME280;68768;53.156;18.164;2024-02-26T12:53:12;100534.81;;;10.01;80.80
76551;BME280;68768;53.156;18.164;2024-02-26T12:55:39;100534.58;;;10.03;80.67
76551;BME280;68768;53.156;18.164;2024-02-26T12:58:07;100533.04;;;10.06;80.51
76551;BME280;68768;53.156;18.164;2024-02-26T13:00:34;100530.38;;;10.10;81.12
76551;BME280;68768;53.156;18.164;2024-02-26T13:03:02;100528.11;;;10.14;80.84